Time;durP1;ratioP1;P1;durP2;ratioP2;P2;SDS_P1;SDS_P2;PMS_P1;PMS_P2;Temp;Humidity;BMP_temperature;BMP_pressure;BME280_temperature;BME280_humidity;BME280_pressure;Samples;Min_cycle;Max_cycle;Signal;HPM_P1;HPM_P2
2023/01/18 00:01:44;;;;;;;13.87;10.40;;;-0.40;99.90;;;;;;5075207;28;20262;-71
2023/01/18 00:04:11;;;;;;;15.80;11.03;;;-0.40;99.90;;;;;;5075595;28;20718;-70
2023/01/18 00:06:38;;;;;;;12.97;10.10;;;-0.50;99.90;;;;;;5075485;28;20197;-71
2023/01/18 00:09:05;;;;;;;15.60;10.23;;;-0.50;99.90;;;;;;5075347;28;20270;-70
2023/01/18 00:11:31;;;;;;;14.57;10.73;;;-0.50;99.90;;;;;;5075314;28;20610;-71
2023/01/18 00:13:58;;;;;;;13.87;10.30;;;-0.50;99.90;;;;;;5075234;28;20193;-70
2023/01/18 00:16:25;;;;;;;14.13;10.47;;;-0.40;99.90;;;;;;5075027;28;20234;-70
2023/01/18 00:18:54;;;;;;;17.00;11.63;;;-0.40;99.90;;;;;;5075217;28;20606;-70
2023/01/18 00:21:22;;;;;;;15.23;11.13;;;-0.30;99.90;;;;;;5074793;28;20771;-71
2023/01/18 00:23:48;;;;;;;15.13;10.83;;;-0.30;99.90;;;;;;5075009;28;20197;-72
2023/01/18 00:26:15;;;;;;;17.93;12.33;;;-0.30;99.90;;;;;;5074659;28;20608;-70
2023/01/18 00:28:42;;;;;;;16.00;11.17;;;-0.30;99.90;;;;;;5074818;28;20197;-71
2023/01/18 00:31:10;;;;;;;15.27;12.03;;;-0.30;99.90;;;;;;5074704;28;20668;-71
2023/01/18 00:33:36;;;;;;;15.40;11.60;;;-0.30;99.90;;;;;;5074926;28;20196;-70
2023/01/18 00:36:05;;;;;;;16.30;11.03;;;-0.30;99.90;;;;;;5074744;28;20337;-70
2023/01/18 00:38:32;;;;;;;13.87;11.20;;;-0.20;99.90;;;;;;5074739;28;20263;-71
2023/01/18 00:40:58;;;;;;;16.33;11.40;;;-0.20;99.90;;;;;;5074527;28;20242;-69
2023/01/18 00:43:39;;;;;;;14.60;11.83;;;-0.20;99.90;;;;;;5074560;28;20197;-70
2023/01/18 00:46:07;;;;;;;16.13;11.27;;;-0.20;99.90;;;;;;5074685;28;20211;-70
2023/01/18 00:48:34;;;;;;;14.33;11.53;;;-0.20;99.90;;;;;;5074307;28;20729;-70
2023/01/18 00:51:00;;;;;;;14.73;11.13;;;-0.20;99.90;;;;;;5074440;28;20197;-71
2023/01/18 00:53:29;;;;;;;16.50;11.83;;;-0.20;99.90;;;;;;5074274;28;20649;-71
2023/01/18 00:55:55;;;;;;;15.47;11.50;;;-0.20;99.90;;;;;;5074109;28;20657;-71
2023/01/18 00:58:22;;;;;;;20.20;11.43;;;-0.10;99.90;;;;;;5074452;28;20250;-71
2023/01/18 01:00:51;;;;;;;16.77;11.73;;;-0.10;99.90;;;;;;5074274;28;20676;-71
2023/01/18 01:03:18;;;;;;;16.83;11.90;;;-0.20;99.90;;;;;;5073458;28;20192;-70
2023/01/18 01:08:30;;;;;;;17.87;12.30;;;-0.20;99.90;;;;;;5074065;28;20258;-71
2023/01/18 01:11:05;;;;;;;18.73;12.50;;;-0.20;99.90;;;;;;5074166;28;20205;-71
2023/01/18 01:27:13;;;;;;;19.17;13.80;;;-0.20;99.90;;;;;;5073609;28;20200;-71
2023/01/18 01:29:40;;;;;;;19.13;13.23;;;-0.10;99.90;;;;;;5074046;28;20197;-71
2023/01/18 01:32:07;;;;;;;21.53;14.00;;;-0.20;99.90;;;;;;5073728;28;20197;-71
2023/01/18 01:34:34;;;;;;;19.07;13.60;;;-0.20;99.90;;;;;;5073451;28;20232;-71
2023/01/18 01:37:01;;;;;;;20.90;13.83;;;-0.10;99.90;;;;;;5073522;28;20289;-71
2023/01/18 01:39:29;;;;;;;21.00;15.00;;;-0.10;99.90;;;;;;5073624;28;20250;-71
2023/01/18 01:41:56;;;;;;;20.17;14.17;;;-0.20;99.90;;;;;;5073492;28;20229;-71
2023/01/18 01:44:46;;;;;;;20.83;14.17;;;-0.20;99.90;;;;;;5073679;28;20197;-71
2023/01/18 01:47:20;;;;;;;20.30;13.80;;;-0.20;99.90;;;;;;5073270;28;20204;-71
2023/01/18 01:49:48;;;;;;;24.13;14.83;;;-0.20;99.90;;;;;;5073378;28;20197;-71
2023/01/18 01:52:23;;;;;;;20.93;14.27;;;-0.10;99.90;;;;;;5073123;28;20274;-71
2023/01/18 01:54:55;;;;;;;23.77;15.60;;;-0.20;99.90;;;;;;5073170;28;20618;-71
2023/01/18 01:57:26;;;;;;;25.73;15.67;;;-0.10;99.90;;;;;;5073288;28;20201;-71
2023/01/18 01:59:59;;;;;;;22.37;15.47;;;-0.10;99.90;;;;;;5073297;28;20193;-70
2023/01/18 02:02:26;;;;;;;25.13;15.33;;;-0.10;99.90;;;;;;5073071;28;20224;-71
2023/01/18 02:04:54;;;;;;;23.10;14.33;;;-0.10;99.90;;;;;;5073071;28;20710;-71
2023/01/18 02:07:25;;;;;;;22.73;14.67;;;-0.10;99.90;;;;;;5073221;28;20258;-71
2023/01/18 02:09:54;;;;;;;21.10;15.60;;;-0.10;99.90;;;;;;5073162;28;20270;-71
2023/01/18 02:12:20;;;;;;;24.07;14.93;;;-0.10;99.90;;;;;;5072997;28;20259;-71
2023/01/18 02:14:47;;;;;;;21.47;14.77;;;-0.10;99.90;;;;;;5073006;28;20197;-70
2023/01/18 02:17:27;;;;;;;22.17;15.07;;;-0.10;99.90;;;;;;5072895;28;20258;-70
2023/01/18 02:20:18;;;;;;;21.07;15.07;;;-0.10;99.90;;;;;;5073069;28;20197;-71
2023/01/18 02:23:06;;;;;;;26.53;14.47;;;-0.10;99.90;;;;;;5072844;28;20228;-70
2023/01/18 02:26:00;;;;;;;25.03;15.47;;;-0.10;99.90;;;;;;5072652;28;20323;-71
2023/01/18 02:28:32;;;;;;;23.27;14.67;;;-0.10;99.90;;;;;;5072987;28;20201;-70
2023/01/18 02:31:05;;;;;;;22.97;14.93;;;-0.10;99.90;;;;;;5072909;28;20212;-71
2023/01/18 02:33:38;;;;;;;27.50;15.70;;;-0.20;99.90;;;;;;5072760;28;20250;-70
2023/01/18 02:36:06;;;;;;;23.30;14.93;;;-0.10;99.90;;;;;;5072684;28;20668;-70
2023/01/18 02:38:38;;;;;;;27.50;16.23;;;-0.10;99.90;;;;;;5072870;28;20219;-70
2023/01/18 02:41:12;;;;;;;30.47;16.20;;;-0.10;99.90;;;;;;5072810;28;20216;-71
2023/01/18 02:46:32;;;;;;;29.00;16.20;;;-0.10;99.90;;;;;;5072670;28;20278;-71
2023/01/18 02:49:03;;;;;;;28.57;15.93;;;-0.20;99.90;;;;;;5072724;28;20660;-71
2023/01/18 02:51:29;;;;;;;23.37;15.77;;;-0.10;99.90;;;;;;5072840;28;20248;-71
2023/01/18 02:53:57;;;;;;;24.30;15.77;;;-0.10;99.90;;;;;;5072552;28;20599;-71
2023/01/18 02:56:29;;;;;;;28.00;16.13;;;-0.10;99.90;;;;;;5072551;28;20200;-71
2023/01/18 02:59:02;;;;;;;23.67;15.50;;;-0.10;99.90;;;;;;5072471;28;20619;-71
2023/01/18 03:01:35;;;;;;;26.20;16.77;;;-0.10;99.90;;;;;;5072850;28;20303;-71
2023/01/18 03:04:06;;;;;;;26.10;15.80;;;-0.10;99.90;;;;;;5072545;28;20200;-70
2023/01/18 03:06:33;;;;;;;26.30;16.30;;;-0.10;99.90;;;;;;5072585;28;20193;-70
2023/01/18 03:09:00;;;;;;;24.63;16.17;;;-0.10;99.90;;;;;;5072360;28;20526;-70
2023/01/18 03:11:35;;;;;;;27.40;16.10;;;-0.20;99.90;;;;;;5072345;28;20205;-70
2023/01/18 03:14:12;;;;;;;29.17;16.93;;;-0.10;99.90;;;;;;5072550;28;20609;-70
2023/01/18 03:16:56;;;;;;;28.83;16.80;;;-0.10;99.90;;;;;;5072423;28;20201;-71
2023/01/18 03:22:17;;;;;;;31.73;17.73;;;-0.10;99.90;;;;;;5072532;28;20293;-71
2023/01/18 03:24:44;;;;;;;30.93;17.97;;;0.00;99.90;;;;;;5072223;28;20205;-70
2023/01/18 03:35:27;;;;;;;34.00;17.93;;;-0.10;99.90;;;;;;5075915;28;20200;-71
2023/01/18 03:37:56;;;;;;;35.33;18.87;;;-0.10;99.90;;;;;;5075865;28;20197;-70
2023/01/18 03:40:26;;;;;;;31.07;18.97;;;0.00;99.90;;;;;;5075687;28;20254;-70
2023/01/18 03:42:59;;;;;;;32.03;17.40;;;0.00;99.90;;;;;;5075542;28;20229;-70
2023/01/18 03:45:31;;;;;;;34.53;18.33;;;0.00;99.90;;;;;;5075911;28;20205;-70
2023/01/18 03:47:57;;;;;;;30.67;17.97;;;-0.10;99.90;;;;;;5075679;28;20197;-70
2023/01/18 03:50:32;;;;;;;30.90;17.07;;;-0.10;99.90;;;;;;5075523;28;20738;-70
2023/01/18 03:53:06;;;;;;;31.67;18.20;;;-0.10;99.90;;;;;;5075460;28;20254;-70
2023/01/18 03:55:40;;;;;;;33.17;18.53;;;-0.10;99.90;;;;;;5075700;28;20197;-70
2023/01/18 03:58:10;;;;;;;33.50;19.10;;;-0.10;99.90;;;;;;5075588;28;20200;-70
2023/01/18 04:00:39;;;;;;;38.40;18.60;;;-0.10;99.90;;;;;;5075414;28;20603;-70
2023/01/18 04:03:06;;;;;;;33.43;19.77;;;0.00;99.90;;;;;;5075136;28;20723;-70
2023/01/18 04:05:34;;;;;;;37.83;19.80;;;0.00;99.90;;;;;;5075357;28;20267;-70
2023/01/18 04:08:00;;;;;;;34.10;18.90;;;-0.10;99.90;;;;;;5075456;28;20237;-70
2023/01/18 04:10:27;;;;;;;32.50;19.40;;;-0.10;99.90;;;;;;5075384;28;20258;-70
2023/01/18 04:12:53;;;;;;;39.67;20.47;;;0.00;99.90;;;;;;5075216;28;20201;-70
2023/01/18 04:15:20;;;;;;;39.23;19.83;;;0.00;99.90;;;;;;5075155;28;20197;-70
2023/01/18 04:17:52;;;;;;;36.80;19.37;;;0.00;99.90;;;;;;5074928;28;20197;-70
2023/01/18 04:20:18;;;;;;;36.60;20.00;;;-0.10;99.90;;;;;;5074990;28;20216;-71
2023/01/18 04:22:50;;;;;;;37.73;20.23;;;0.00;99.90;;;;;;5074798;28;20670;-71
2023/01/18 04:25:17;;;;;;;42.50;21.20;;;0.00;99.90;;;;;;5074927;28;20225;-71
2023/01/18 04:27:43;;;;;;;39.53;21.30;;;0.00;99.90;;;;;;5074881;28;20644;-71
2023/01/18 04:30:11;;;;;;;39.97;21.23;;;0.00;99.90;;;;;;5075072;28;20192;-70
2023/01/18 04:32:38;;;;;;;37.77;20.73;;;0.00;99.90;;;;;;5074671;28;20250;-70
2023/01/18 04:35:07;;;;;;;39.77;21.20;;;0.00;99.90;;;;;;5075052;28;20204;-70
2023/01/18 04:37:33;;;;;;;39.80;21.13;;;-0.10;99.90;;;;;;5073866;28;20193;-70
2023/01/18 04:40:01;;;;;;;42.87;21.67;;;-0.10;99.90;;;;;;5074327;28;20710;-70
2023/01/18 04:42:27;;;;;;;41.20;21.67;;;-0.10;99.90;;;;;;5074467;28;20634;-70
2023/01/18 04:44:54;;;;;;;43.40;21.70;;;-0.10;99.90;;;;;;5074529;28;20197;-71
2023/01/18 04:47:20;;;;;;;44.50;21.93;;;-0.10;99.90;;;;;;5074415;28;20603;-70
2023/01/18 04:49:47;;;;;;;47.30;22.33;;;-0.10;99.90;;;;;;5074612;28;20197;-71
2023/01/18 04:52:15;;;;;;;43.23;21.83;;;-0.10;99.90;;;;;;5074597;28;20246;-71
2023/01/18 04:54:42;;;;;;;53.60;22.77;;;-0.20;99.90;;;;;;5074465;28;20254;-70
2023/01/18 04:57:09;;;;;;;52.17;23.80;;;-0.10;99.90;;;;;;5074281;28;20215;-71
2023/01/18 04:59:39;;;;;;;50.87;23.93;;;-0.10;99.90;;;;;;5074088;28;20197;-71
2023/01/18 05:02:06;;;;;;;53.83;22.87;;;-0.10;99.90;;;;;;5074099;28;20248;-70
2023/01/18 05:04:32;;;;;;;58.33;23.73;;;-0.10;99.90;;;;;;5074209;28;20226;-71
2023/01/18 05:07:01;;;;;;;55.67;22.83;;;-0.10;99.90;;;;;;5074528;28;20197;-71
2023/01/18 05:09:29;;;;;;;54.97;23.93;;;-0.10;99.90;;;;;;5074011;28;20560;-71
2023/01/18 05:11:55;;;;;;;52.10;24.10;;;-0.10;99.90;;;;;;5073991;28;20197;-70
2023/01/18 05:14:22;;;;;;;55.87;23.80;;;-0.20;99.90;;;;;;5073914;28;20668;-69
2023/01/18 05:16:48;;;;;;;59.07;24.37;;;-0.10;99.90;;;;;;5074008;28;20197;-70
2023/01/18 05:19:15;;;;;;;52.80;24.03;;;-0.10;99.90;;;;;;5073926;28;20205;-71
2023/01/18 05:21:41;;;;;;;50.87;25.17;;;0.00;99.90;;;;;;5073852;28;20220;-71
2023/01/18 05:24:08;;;;;;;56.00;26.27;;;0.00;99.90;;;;;;5073749;28;20297;-70
2023/01/18 05:26:36;;;;;;;51.13;24.70;;;0.00;99.90;;;;;;5073129;28;20255;-70
2023/01/18 05:29:03;;;;;;;53.77;24.93;;;0.00;99.90;;;;;;5072696;28;20227;-71
2023/01/18 05:31:29;;;;;;;57.87;24.93;;;0.00;99.90;;;;;;5072662;28;20644;-71
2023/01/18 05:33:56;;;;;;;50.03;24.87;;;0.00;99.90;;;;;;5072864;28;20205;-71
2023/01/18 05:36:23;;;;;;;56.70;26.03;;;0.00;99.90;;;;;;5072764;28;20201;-71
2023/01/18 05:38:50;;;;;;;48.73;23.60;;;0.00;99.90;;;;;;5072758;28;20192;-71
2023/01/18 05:41:16;;;;;;;59.17;26.13;;;0.00;99.90;;;;;;5072671;28;20660;-71
2023/01/18 05:43:44;;;;;;;58.87;25.17;;;0.00;99.90;;;;;;5072396;28;20719;-71
2023/01/18 05:46:11;;;;;;;50.07;24.80;;;0.00;99.90;;;;;;5072642;28;20201;-71
2023/01/18 05:48:37;;;;;;;54.33;25.87;;;0.00;99.90;;;;;;5072431;28;20258;-71
2023/01/18 05:51:07;;;;;;;66.73;25.03;;;0.00;99.90;;;;;;5072471;28;20247;-71
2023/01/18 05:53:34;;;;;;;57.17;25.13;;;0.00;99.90;;;;;;5072723;28;20197;-71
2023/01/18 05:56:04;;;;;;;67.00;24.33;;;0.00;99.90;;;;;;5072286;28;20197;-71
2023/01/18 05:58:31;;;;;;;63.50;23.97;;;0.00;99.90;;;;;;5072460;28;20203;-71
2023/01/18 06:00:59;;;;;;;59.67;24.07;;;-0.10;99.90;;;;;;5072379;28;20193;-70
2023/01/18 06:03:26;;;;;;;73.63;23.77;;;-0.20;99.90;;;;;;5072251;28;20289;-70
2023/01/18 06:05:52;;;;;;;56.17;24.60;;;-0.30;99.90;;;;;;5072464;28;20607;-70
2023/01/18 06:08:20;;;;;;;49.47;22.87;;;-0.30;99.90;;;;;;5072176;28;20196;-71
2023/01/18 06:10:53;;;;;;;47.10;22.57;;;-0.30;99.90;;;;;;5072383;28;20254;-70
2023/01/18 06:13:19;;;;;;;49.70;21.47;;;-0.40;99.90;;;;;;5072273;28;20196;-71
2023/01/18 06:15:46;;;;;;;52.77;23.23;;;-0.40;99.90;;;;;;5072130;28;20227;-71
2023/01/18 06:18:14;;;;;;;93.17;39.50;;;-0.30;99.90;;;;;;5071931;28;20254;-71
2023/01/18 06:20:41;;;;;;;76.77;22.93;;;-0.40;99.90;;;;;;5071985;28;20334;-70
2023/01/18 06:23:07;;;;;;;59.70;20.80;;;-0.40;99.90;;;;;;5071817;28;20311;-70
2023/01/18 06:25:34;;;;;;;57.23;21.93;;;-0.40;99.90;;;;;;5036087;28;1027963;-71
2023/01/18 06:28:01;;;;;;;60.83;20.83;;;-0.50;99.90;;;;;;5072940;28;20193;-71
2023/01/18 06:30:28;;;;;;;58.20;22.13;;;-0.50;99.90;;;;;;5072772;28;20200;-70
2023/01/18 06:32:54;;;;;;;54.83;21.87;;;-0.60;99.90;;;;;;5072689;28;20250;-70
2023/01/18 06:35:22;;;;;;;48.10;22.77;;;-0.60;99.90;;;;;;5072627;28;20196;-70
2023/01/18 06:37:51;;;;;;;51.70;23.40;;;-0.60;99.90;;;;;;5072661;28;20197;-70
2023/01/18 06:40:18;;;;;;;43.53;21.60;;;-0.60;99.90;;;;;;5072632;28;20197;-71
2023/01/18 06:42:48;;;;;;;43.87;20.53;;;-0.70;99.90;;;;;;5072523;28;20241;-70
2023/01/18 06:45:16;;;;;;;40.80;19.37;;;-0.70;99.90;;;;;;5072326;28;20201;-70
2023/01/18 06:47:43;;;;;;;40.10;19.33;;;-0.70;99.90;;;;;;5072351;28;20277;-71
2023/01/18 06:50:11;;;;;;;41.33;19.30;;;-0.70;99.90;;;;;;5072368;28;20196;-71
2023/01/18 06:52:39;;;;;;;38.80;18.23;;;-0.70;99.90;;;;;;5072583;28;20251;-73
2023/01/18 06:55:06;;;;;;;36.70;17.70;;;-0.70;99.90;;;;;;5072394;28;20193;-71
2023/01/18 06:57:32;;;;;;;38.23;19.07;;;-0.70;99.90;;;;;;5072354;28;20193;-71
2023/01/18 07:00:00;;;;;;;40.90;19.53;;;-0.80;99.90;;;;;;5072292;28;20255;-71
2023/01/18 07:02:28;;;;;;;38.30;19.87;;;-0.70;99.90;;;;;;5075017;28;20225;-71
2023/01/18 07:04:54;;;;;;;37.50;19.40;;;-0.70;99.90;;;;;;5076117;28;20193;-70
2023/01/18 07:07:21;;;;;;;36.37;18.53;;;-0.70;99.90;;;;;;5076542;28;20193;-71
2023/01/18 07:09:49;;;;;;;41.17;18.90;;;-0.70;99.90;;;;;;5076239;28;20232;-70
2023/01/18 07:12:16;;;;;;;30.87;17.60;;;-0.70;99.90;;;;;;5076213;28;20201;-70
2023/01/18 07:14:42;;;;;;;27.03;16.37;;;-0.70;99.90;;;;;;5076120;28;20657;-71
2023/01/18 07:17:09;;;;;;;27.50;14.57;;;-0.80;99.90;;;;;;5076130;28;20255;-70
2023/01/18 07:19:36;;;;;;;24.17;13.83;;;-0.80;99.90;;;;;;5076292;28;20197;-71
2023/01/18 07:22:02;;;;;;;23.20;14.33;;;-0.80;99.90;;;;;;5076151;28;20204;-70
2023/01/18 07:24:29;;;;;;;22.43;14.30;;;-0.80;99.90;;;;;;5076243;28;20204;-70
2023/01/18 07:26:58;;;;;;;25.00;15.33;;;-0.70;99.90;;;;;;5075899;28;20229;-70
2023/01/18 07:29:26;;;;;;;23.37;15.00;;;-0.70;99.90;;;;;;5075985;28;20193;-71
2023/01/18 07:31:53;;;;;;;22.93;14.37;;;-0.70;99.90;;;;;;5075713;28;20201;-70
2023/01/18 07:34:19;;;;;;;19.67;13.23;;;-0.60;99.90;;;;;;5076121;28;20225;-70
2023/01/18 07:36:46;;;;;;;19.67;14.30;;;-0.60;99.90;;;;;;5075953;28;20251;-70
2023/01/18 07:39:12;;;;;;;19.20;13.97;;;-0.50;99.90;;;;;;5075803;28;20254;-69
2023/01/18 07:41:40;;;;;;;22.50;14.87;;;-0.60;99.90;;;;;;5075770;28;20274;-70
2023/01/18 07:44:10;;;;;;;21.73;14.60;;;-0.50;99.90;;;;;;5075555;28;20259;-71
2023/01/18 07:46:37;;;;;;;20.80;14.27;;;-0.60;99.90;;;;;;5075396;28;20227;-70
2023/01/18 07:49:04;;;;;;;20.47;13.63;;;-0.60;99.90;;;;;;5075361;28;20551;-71
2023/01/18 07:51:31;;;;;;;19.37;12.93;;;-0.50;99.90;;;;;;5075436;28;20197;-71
2023/01/18 07:53:58;;;;;;;18.67;12.60;;;-0.50;99.90;;;;;;5075327;28;20626;-71
2023/01/18 07:56:26;;;;;;;18.90;12.87;;;-0.50;99.90;;;;;;5075415;28;20197;-70
2023/01/18 07:58:53;;;;;;;17.60;12.47;;;-0.60;99.90;;;;;;5075282;28;20200;-70
2023/01/18 08:01:22;;;;;;;20.73;12.87;;;-0.60;99.90;;;;;;5075404;28;20307;-69
2023/01/18 08:03:50;;;;;;;16.43;12.03;;;-0.60;99.90;;;;;;5075060;28;20680;-70
2023/01/18 08:06:21;;;;;;;17.77;12.23;;;-0.60;99.90;;;;;;5075462;28;20193;-71
2023/01/18 08:08:47;;;;;;;18.00;12.27;;;-0.60;99.90;;;;;;5075431;28;20236;-71
2023/01/18 08:11:14;;;;;;;16.57;12.13;;;-0.60;99.90;;;;;;5075118;28;20192;-70
2023/01/18 08:13:41;;;;;;;22.83;15.90;;;-0.50;99.90;;;;;;5074716;28;20225;-71
2023/01/18 08:16:10;;;;;;;19.93;13.70;;;-0.50;99.90;;;;;;5075139;28;20282;-70
2023/01/18 08:18:38;;;;;;;18.23;12.37;;;-0.40;99.90;;;;;;5074720;28;20711;-71
2023/01/18 08:21:06;;;;;;;17.50;11.30;;;-0.40;99.90;;;;;;5074910;28;20251;-72
2023/01/18 08:23:32;;;;;;;18.00;11.90;;;-0.40;99.90;;;;;;5074968;28;20220;-70
2023/01/18 08:26:03;;;;;;;17.27;11.90;;;-0.50;99.90;;;;;;5074727;28;20283;-70
2023/01/18 08:28:29;;;;;;;17.63;12.00;;;-0.40;99.90;;;;;;5074870;28;20610;-69
2023/01/18 08:31:07;;;;;;;17.43;11.67;;;-0.50;99.90;;;;;;5074755;28;20196;-70
2023/01/18 08:33:38;;;;;;;17.63;11.93;;;-0.40;99.90;;;;;;5074658;28;20631;-70
2023/01/18 08:36:09;;;;;;;21.00;12.13;;;-0.40;99.90;;;;;;5074571;28;20607;-71
2023/01/18 08:38:35;;;;;;;17.77;12.50;;;-0.50;99.90;;;;;;5074617;28;20538;-71
2023/01/18 08:41:02;;;;;;;17.33;12.27;;;-0.40;99.90;;;;;;5074049;28;20193;-70
2023/01/18 08:43:29;;;;;;;18.13;12.40;;;-0.30;99.90;;;;;;5074586;28;20238;-71
2023/01/18 08:45:56;;;;;;;19.67;12.67;;;-0.40;99.90;;;;;;5074253;28;20679;-70
2023/01/18 08:48:22;;;;;;;15.63;11.60;;;-0.30;99.90;;;;;;5074429;28;20197;-70
2023/01/18 08:50:50;;;;;;;16.30;12.07;;;-0.20;99.90;;;;;;5074123;28;20197;-70
2023/01/18 08:53:17;;;;;;;14.63;10.67;;;0.00;99.90;;;;;;5074044;28;20722;-70
2023/01/18 08:55:43;;;;;;;21.50;10.57;;;-0.10;99.90;;;;;;5074312;28;20246;-70
2023/01/18 08:58:10;;;;;;;18.17;11.23;;;-0.10;99.90;;;;;;5074243;28;20201;-69
2023/01/18 09:00:37;;;;;;;15.60;10.87;;;-0.30;99.90;;;;;;5074193;28;20201;-71
2023/01/18 09:03:05;;;;;;;16.80;11.20;;;-0.20;99.90;;;;;;5073746;28;20236;-70
2023/01/18 09:05:34;;;;;;;14.37;10.70;;;-0.20;99.90;;;;;;5073498;28;20267;-71
2023/01/18 09:08:02;;;;;;;15.20;10.63;;;0.10;99.90;;;;;;5074067;28;20207;-72
2023/01/18 09:10:29;;;;;;;13.70;10.50;;;0.10;99.90;;;;;;5074156;28;20243;-71
2023/01/18 09:12:56;;;;;;;13.40;10.27;;;0.20;99.90;;;;;;5070771;28;20614;-72
2023/01/18 09:15:22;;;;;;;13.20;9.97;;;0.20;99.90;;;;;;5068982;28;20679;-72
2023/01/18 09:17:49;;;;;;;13.87;10.63;;;0.10;99.90;;;;;;5072991;28;20191;-72
2023/01/18 09:20:16;;;;;;;14.70;10.20;;;0.10;99.90;;;;;;5070553;28;20638;-72
2023/01/18 09:22:44;;;;;;;14.13;10.53;;;0.10;99.90;;;;;;5073577;28;20341;-71
2023/01/18 09:25:12;;;;;;;13.33;10.10;;;0.00;99.90;;;;;;5072887;28;20228;-73
2023/01/18 09:27:39;;;;;;;17.67;10.63;;;0.10;99.90;;;;;;5073611;28;20247;-72
2023/01/18 09:30:08;;;;;;;13.63;10.73;;;-0.20;99.90;;;;;;5073622;28;20258;-71
2023/01/18 09:32:34;;;;;;;15.67;11.57;;;-0.10;99.90;;;;;;5073266;28;20649;-71
2023/01/18 09:35:01;;;;;;;17.30;12.53;;;-0.20;99.90;;;;;;5073445;28;20227;-71
2023/01/18 09:37:28;;;;;;;15.00;11.43;;;-0.20;99.90;;;;;;5073634;28;20766;-71
2023/01/18 09:39:54;;;;;;;17.57;12.57;;;-0.20;99.90;;;;;;5073342;28;20207;-71
2023/01/18 09:42:27;;;;;;;15.10;11.07;;;-0.30;99.90;;;;;;5073299;28;20246;-70
2023/01/18 09:44:57;;;;;;;17.37;12.40;;;-0.30;99.90;;;;;;5073328;28;20266;-71
2023/01/18 09:47:26;;;;;;;17.90;12.27;;;-0.30;99.90;;;;;;5073100;28;20280;-72
2023/01/18 09:49:55;;;;;;;17.93;12.53;;;-0.40;99.90;;;;;;5073229;28;20258;-71
2023/01/18 09:52:32;;;;;;;19.13;12.07;;;-0.40;99.90;;;;;;5073051;28;20192;-72
2023/01/18 09:55:05;;;;;;;17.67;13.00;;;-0.30;99.90;;;;;;5073287;28;20584;-70
2023/01/18 09:57:44;;;;;;;17.30;12.23;;;-0.30;99.90;;;;;;5072927;28;20246;-71
2023/01/18 10:00:19;;;;;;;16.27;11.80;;;-0.30;99.90;;;;;;5073087;28;20234;-71
2023/01/18 10:02:50;;;;;;;16.33;11.97;;;-0.40;99.90;;;;;;5073109;28;20258;-72
2023/01/18 10:05:21;;;;;;;15.37;11.40;;;-0.50;99.90;;;;;;5072856;28;20223;-71
2023/01/18 10:08:01;;;;;;;15.07;11.20;;;-0.50;99.90;;;;;;5072952;28;20201;-72
2023/01/18 10:10:31;;;;;;;14.13;10.13;;;-0.50;99.90;;;;;;5072921;28;20209;-72
2023/01/18 10:13:10;;;;;;;12.70;9.77;;;-0.60;99.90;;;;;;5071601;28;20594;-71
2023/01/18 10:15:38;;;;;;;13.13;10.00;;;-0.60;99.90;;;;;;5071472;28;20200;-72
2023/01/18 10:18:04;;;;;;;12.50;9.57;;;-0.50;99.90;;;;;;5072545;28;20565;-73
2023/01/18 10:20:38;;;;;;;13.13;10.00;;;-0.50;99.90;;;;;;5072528;28;20273;-76
2023/01/18 10:23:14;;;;;;;13.60;9.97;;;-0.50;99.90;;;;;;5054753;28;20203;-71
2023/01/18 10:25:45;;;;;;;12.20;8.40;;;-0.50;99.90;;;;;;5072184;28;20250;-73
2023/01/18 10:28:38;;;;;;;12.33;9.30;;;-0.50;99.90;;;;;;5072653;28;20270;-70
2023/01/18 10:31:23;;;;;;;10.10;7.93;;;-0.50;99.90;;;;;;5072524;28;20229;-70
2023/01/18 10:33:53;;;;;;;12.00;8.80;;;-0.50;99.90;;;;;;5072185;28;20270;-70
2023/01/18 10:36:24;;;;;;;11.13;8.53;;;-0.50;99.90;;;;;;5070931;28;20193;-69
2023/01/18 10:38:54;;;;;;;12.03;8.20;;;-0.40;99.90;;;;;;5071968;28;20540;-71
2023/01/18 10:41:24;;;;;;;11.07;8.17;;;-0.50;99.90;;;;;;5071466;28;20649;-70
2023/01/18 10:43:52;;;;;;;12.27;8.63;;;-0.40;99.90;;;;;;5052274;28;20202;-70
2023/01/18 10:46:19;;;;;;;8.70;7.37;;;-0.40;99.90;;;;;;5052022;28;20283;-70
2023/01/18 10:48:48;;;;;;;9.83;8.00;;;-0.50;99.90;;;;;;5052165;28;20240;-70
2023/01/18 10:51:28;;;;;;;9.60;8.23;;;-0.40;99.90;;;;;;5052103;28;20260;-70
2023/01/18 10:53:56;;;;;;;10.20;8.37;;;-0.30;99.90;;;;;;5051950;28;20248;-70
2023/01/18 10:56:25;;;;;;;10.77;7.73;;;-0.40;99.90;;;;;;5052363;28;20198;-70
2023/01/18 10:58:57;;;;;;;10.93;7.70;;;-0.40;99.90;;;;;;5052721;28;20247;-70
2023/01/18 11:01:26;;;;;;;9.40;7.63;;;-0.40;99.90;;;;;;5052261;28;20207;-70
2023/01/18 11:03:55;;;;;;;10.63;8.60;;;-0.40;99.90;;;;;;5052332;28;20210;-71
2023/01/18 11:06:24;;;;;;;9.57;7.90;;;-0.30;99.90;;;;;;5052173;28;20202;-71
2023/01/18 11:08:51;;;;;;;10.10;7.87;;;-0.30;99.90;;;;;;5052660;28;20292;-70
2023/01/18 11:12:32;;;;;;;11.03;8.37;;;-0.30;99.90;;;;;;5052489;28;20255;-69
2023/01/18 11:14:29;;;;;;;9.73;8.30;;;-0.20;99.90;;;;;;5051920;28;20228;-69
2023/01/18 11:17:01;;;;;;;8.90;7.87;;;-0.30;99.90;;;;;;5052040;28;20198;-70
2023/01/18 11:19:27;;;;;;;9.50;8.10;;;-0.30;99.90;;;;;;5052168;28;20206;-70
2023/01/18 11:21:55;;;;;;;10.60;8.47;;;-0.20;99.90;;;;;;5052130;28;20218;-71
2023/01/18 11:24:26;;;;;;;10.50;8.60;;;-0.30;99.90;;;;;;5051917;28;20193;-70
2023/01/18 11:26:56;;;;;;;11.20;8.80;;;-0.30;99.90;;;;;;5051913;28;20234;-70
2023/01/18 11:29:27;;;;;;;9.53;8.07;;;-0.40;99.90;;;;;;5051872;28;20200;-70
2023/01/18 11:31:55;;;;;;;12.73;8.70;;;-0.30;99.90;;;;;;5052134;28;20201;-70
2023/01/18 11:34:27;;;;;;;12.03;8.90;;;-0.40;99.90;;;;;;5052002;28;20226;-70
2023/01/18 11:36:55;;;;;;;10.30;8.00;;;-0.30;99.90;;;;;;5052032;28;20201;-70
2023/01/18 11:39:33;;;;;;;12.53;8.73;;;-0.30;99.90;;;;;;5051887;28;20252;-70
2023/01/18 11:42:23;;;;;;;9.70;7.90;;;-0.20;99.90;;;;;;5051741;28;20197;-70
2023/01/18 11:45:04;;;;;;;9.73;8.07;;;-0.20;99.90;;;;;;5051892;28;20197;-71
2023/01/18 11:47:39;;;;;;;9.70;7.30;;;-0.10;99.90;;;;;;5052840;28;20652;-70
2023/01/18 11:50:18;;;;;;;8.90;8.00;;;-0.20;99.90;;;;;;5055293;28;20576;-70
2023/01/18 11:52:52;;;;;;;10.13;7.83;;;-0.10;99.90;;;;;;5055555;28;20251;-71
2023/01/18 11:55:30;;;;;;;10.63;8.60;;;-0.20;99.90;;;;;;5055224;28;20257;-70
2023/01/18 11:57:57;;;;;;;10.73;8.33;;;0.00;99.90;;;;;;5055358;28;20194;-70
2023/01/18 12:00:27;;;;;;;9.93;8.07;;;0.00;99.90;;;;;;5055016;28;20198;-70
2023/01/18 12:03:10;;;;;;;10.10;8.50;;;-0.10;99.90;;;;;;5055089;28;20240;-71
2023/01/18 12:05:51;;;;;;;11.37;8.90;;;-0.10;99.90;;;;;;5054997;28;20201;-70
2023/01/18 12:08:44;;;;;;;13.23;9.33;;;-0.10;99.90;;;;;;5055068;28;20202;-70
2023/01/18 12:11:39;;;;;;;12.10;9.03;;;-0.10;99.90;;;;;;5054834;28;20205;-70
2023/01/18 12:14:19;;;;;;;12.53;9.43;;;-0.20;99.90;;;;;;5053457;28;20248;-70
2023/01/18 12:17:03;;;;;;;17.20;9.80;;;-0.20;99.90;;;;;;5055004;28;20197;-70
2023/01/18 12:19:52;;;;;;;16.27;11.57;;;-0.20;99.90;;;;;;5054659;28;20201;-70
2023/01/18 12:22:42;;;;;;;15.07;10.47;;;-0.20;99.90;;;;;;5054891;28;20198;-70
2023/01/18 12:25:37;;;;;;;13.10;10.43;;;-0.20;99.90;;;;;;5054861;28;20226;-70
2023/01/18 12:28:13;;;;;;;14.97;9.70;;;-0.20;99.90;;;;;;5054740;28;20259;-70
2023/01/18 12:30:54;;;;;;;15.50;10.87;;;-0.20;99.90;;;;;;5055026;28;20211;-70
2023/01/18 12:33:35;;;;;;;14.67;11.00;;;-0.10;99.90;;;;;;5054636;28;20561;-69
2023/01/18 12:36:14;;;;;;;14.73;10.50;;;-0.20;99.90;;;;;;5054222;28;20225;-70
2023/01/18 12:38:50;;;;;;;16.10;11.53;;;-0.10;99.90;;;;;;5054692;28;20326;-69
2023/01/18 12:41:34;;;;;;;13.70;10.73;;;-0.20;99.90;;;;;;5054421;28;20676;-69
2023/01/18 12:44:21;;;;;;;16.63;11.10;;;-0.10;99.90;;;;;;5054326;28;20247;-69
2023/01/18 12:46:58;;;;;;;15.50;11.50;;;-0.10;99.90;;;;;;5054392;28;20649;-69
2023/01/18 12:49:29;;;;;;;13.17;10.23;;;-0.20;99.90;;;;;;5054543;28;20202;-70
2023/01/18 12:51:57;;;;;;;13.97;11.10;;;-0.10;99.90;;;;;;5054366;28;20193;-70
2023/01/18 12:54:29;;;;;;;16.63;11.67;;;-0.10;99.90;;;;;;5054243;28;20588;-69
2023/01/18 12:56:57;;;;;;;15.37;10.80;;;-0.10;99.90;;;;;;5054301;28;20208;-71
2023/01/18 12:59:27;;;;;;;14.67;11.33;;;-0.10;99.90;;;;;;5053174;28;20611;-72
2023/01/18 13:02:00;;;;;;;14.23;11.40;;;-0.10;99.90;;;;;;5064327;28;20205;-72
2023/01/18 13:04:33;;;;;;;17.93;12.23;;;-0.10;99.90;;;;;;5073739;28;20192;-71
2023/01/18 13:07:06;;;;;;;14.23;11.43;;;-0.10;99.90;;;;;;5074153;28;20563;-70
2023/01/18 13:09:37;;;;;;;17.00;11.30;;;-0.10;99.90;;;;;;5073974;28;20274;-72
2023/01/18 13:12:05;;;;;;;13.07;10.67;;;-0.10;99.90;;;;;;5073915;28;20204;-71
2023/01/18 13:14:38;;;;;;;14.80;11.43;;;-0.10;99.90;;;;;;5073859;28;20266;-71
2023/01/18 13:17:11;;;;;;;15.67;11.67;;;0.00;99.90;;;;;;5073748;28;20197;-70